createdAt,value
2022-08-09T00:01:55.121Z,2.20
2022-08-09T00:04:34.140Z,2.08
2022-08-09T00:07:10.561Z,2.20
2022-08-09T00:09:40.029Z,2.13
2022-08-09T00:12:15.462Z,2.08
2022-08-09T00:14:55.975Z,2.45
2022-08-09T00:18:05.604Z,1.83
2022-08-09T00:20:17.177Z,2.28
2022-08-09T00:22:47.291Z,2.22
2022-08-09T00:25:23.251Z,2.65
2022-08-09T00:27:52.247Z,2.10
2022-08-09T00:30:25.327Z,2.10
2022-08-09T00:32:55.857Z,2.28
2022-08-09T00:35:26.453Z,2.20
2022-08-09T00:37:58.018Z,2.03
2022-08-09T00:40:30.964Z,2.40
2022-08-09T00:44:17.022Z,2.28
2022-08-09T00:45:53.873Z,2.38
2022-08-09T00:48:23.100Z,1.95
2022-08-09T00:50:52.238Z,2.08
2022-08-09T00:53:24.390Z,2.22
2022-08-09T00:56:04.193Z,2.08
2022-08-09T00:58:35.882Z,2.13
2022-08-09T01:01:16.436Z,1.92
2022-08-09T01:04:04.820Z,2.28
2022-08-09T01:06:55.576Z,1.70
2022-08-09T01:09:37.341Z,2.22
2022-08-09T01:12:35.341Z,2.38
2022-08-09T01:15:17.793Z,2.53
2022-08-09T01:18:05.057Z,2.05
2022-08-09T01:21:25.044Z,2.38
2022-08-09T01:24:28.842Z,2.42
2022-08-09T01:27:05.924Z,1.92
2022-08-09T01:30:05.718Z,2.15
2022-08-09T01:32:48.559Z,2.25
2022-08-09T01:35:45.680Z,2.20
2022-08-09T01:38:19.879Z,2.17
2022-08-09T01:41:04.736Z,2.38
2022-08-09T01:43:51.013Z,2.30
2022-08-09T01:46:26.765Z,1.80
2022-08-09T01:49:10.165Z,2.20
2022-08-09T01:51:53.922Z,2.20
2022-08-09T01:54:33.455Z,2.17
2022-08-09T01:57:08.237Z,2.33
2022-08-09T01:59:41.089Z,2.08
2022-08-09T02:02:30.925Z,2.22
2022-08-09T02:05:15.396Z,2.30
2022-08-09T02:08:39.435Z,2.08
2022-08-09T02:10:42.824Z,2.58
2022-08-09T02:13:22.134Z,2.22
2022-08-09T02:15:57.639Z,2.28
2022-08-09T02:18:30.871Z,2.00
2022-08-09T02:21:17.162Z,2.35
2022-08-09T02:23:56.465Z,2.40
2022-08-09T02:26:28.266Z,2.30
2022-08-09T02:29:16.583Z,2.05
2022-08-09T02:31:47.489Z,1.80
2022-08-09T02:34:38.585Z,2.33
2022-08-09T02:37:14.869Z,1.92
2022-08-09T02:39:49.586Z,2.22
2022-08-09T02:42:31.144Z,1.88
2022-08-09T02:45:11.635Z,1.80
2022-08-09T02:47:58.090Z,2.10
2022-08-09T02:50:33.337Z,2.20
2022-08-09T02:53:08.211Z,2.33
2022-08-09T02:55:46.239Z,2.33
2022-08-09T02:58:35.569Z,2.05
2022-08-09T03:01:08.220Z,2.17
2022-08-09T03:04:17.504Z,2.25
2022-08-09T03:06:30.548Z,2.10
2022-08-09T03:09:01.815Z,2.10
2022-08-09T03:14:21.871Z,2.28
2022-08-09T03:16:59.315Z,2.33
2022-08-09T03:19:52.141Z,2.17
2022-08-09T03:22:25.426Z,2.47
2022-08-09T03:25:19.855Z,2.33
2022-08-09T03:27:52.409Z,2.38
2022-08-09T03:30:29.781Z,2.72
2022-08-09T03:33:17.309Z,2.38
2022-08-09T03:36:16.169Z,2.22
2022-08-09T03:38:41.886Z,2.95
2022-08-09T03:41:16.667Z,2.75
2022-08-09T03:44:03.513Z,2.30
2022-08-09T03:46:36.857Z,2.85
2022-08-09T03:49:09.027Z,2.88
2022-08-09T03:51:57.793Z,2.40
2022-08-09T03:54:34.275Z,2.70
2022-08-09T03:57:12.416Z,2.72
2022-08-09T03:59:55.804Z,2.60
2022-08-09T04:02:29.928Z,2.85
2022-08-09T04:05:06.298Z,2.58
2022-08-09T04:07:52.843Z,2.38
2022-08-09T04:10:29.444Z,2.67
2022-08-09T04:13:04.235Z,2.47
2022-08-09T04:15:40.679Z,2.47
2022-08-09T04:18:22.055Z,2.55
2022-08-09T04:20:51.324Z,2.40
2022-08-09T04:23:23.379Z,2.47
2022-08-09T04:25:55.884Z,2.15
2022-08-09T04:28:30.652Z,1.95
2022-08-09T04:31:09.011Z,2.13
2022-08-09T04:33:52.381Z,2.03
2022-08-09T04:36:25.155Z,2.00
2022-08-09T04:38:55.199Z,2.08
2022-08-09T04:41:32.197Z,2.30
2022-08-09T04:44:06.865Z,1.92
2022-08-09T04:46:58.539Z,1.85
2022-08-09T04:49:52.863Z,2.13
2022-08-09T04:52:26.907Z,2.00
2022-08-09T04:55:01.511Z,2.25
2022-08-09T04:57:53.916Z,1.60
2022-08-09T05:00:22.306Z,1.85
2022-08-09T05:02:52.700Z,1.80
2022-08-09T05:05:31.514Z,1.92
2022-08-09T05:08:02.195Z,1.75
2022-08-09T05:10:30.712Z,1.30
2022-08-09T05:12:59.455Z,1.58
2022-08-09T05:15:39.260Z,1.30
2022-08-09T05:18:37.483Z,1.13
2022-08-09T05:21:09.702Z,1.30
2022-08-09T05:23:54.129Z,1.20
2022-08-09T05:26:36.853Z,1.10
2022-08-09T05:29:21.121Z,0.98
2022-08-09T05:31:57.297Z,0.90
2022-08-09T05:34:30.868Z,1.30
2022-08-09T05:37:06.476Z,1.20
2022-08-09T05:39:43.212Z,1.20
2022-08-09T05:42:17.552Z,1.45
2022-08-09T05:44:51.987Z,1.40
2022-08-09T05:47:22.848Z,1.30
2022-08-09T05:50:30.772Z,0.90
2022-08-09T05:52:53.595Z,1.08
2022-08-09T05:55:24.297Z,1.48
2022-08-09T05:57:56.370Z,1.30
2022-08-09T06:00:29.010Z,1.20
2022-08-09T06:02:59.717Z,1.25
2022-08-09T06:05:31.067Z,0.98
2022-08-09T06:08:19.374Z,1.20
2022-08-09T06:10:55.754Z,1.15
2022-08-09T06:13:28.368Z,1.20
2022-08-09T06:16:05.529Z,1.10
2022-08-09T06:18:34.996Z,1.42
2022-08-09T06:21:06.715Z,1.15
2022-08-09T06:23:55.832Z,1.30
2022-08-09T06:26:28.571Z,1.50
2022-08-09T06:29:00.247Z,2.03
2022-08-09T06:31:40.143Z,1.30
2022-08-09T06:34:26.022Z,1.55
2022-08-09T06:36:58.983Z,1.23
2022-08-09T06:39:49.087Z,1.00
2022-08-09T06:42:24.694Z,0.95
2022-08-09T06:44:59.006Z,0.83
2022-08-09T06:47:39.537Z,1.10
2022-08-09T06:50:14.195Z,1.10
2022-08-09T06:52:49.110Z,1.00
2022-08-09T06:55:23.031Z,1.27
2022-08-09T06:58:02.828Z,0.80
2022-08-09T07:00:56.139Z,0.90
2022-08-09T07:06:04.893Z,1.00
2022-08-09T07:08:35.273Z,0.75
2022-08-09T07:11:06.936Z,0.90
2022-08-09T07:13:45.018Z,1.10
2022-08-09T07:16:42.389Z,1.10
2022-08-09T07:19:15.514Z,1.35
2022-08-09T07:21:55.861Z,0.93
2022-08-09T07:27:26.945Z,1.00
2022-08-09T07:30:03.780Z,0.80
2022-08-09T07:32:34.664Z,1.00
2022-08-09T07:35:10.836Z,0.93
2022-08-09T07:37:44.378Z,0.80
2022-08-09T07:40:20.351Z,0.93
2022-08-09T07:42:58.685Z,0.73
2022-08-09T07:45:37.336Z,0.60
2022-08-09T07:48:25.825Z,1.00
2022-08-09T07:51:09.422Z,1.00
2022-08-09T07:54:07.390Z,1.23
2022-08-09T07:56:44.735Z,0.90
2022-08-09T07:59:25.682Z,1.00
2022-08-09T08:02:09.532Z,0.90
2022-08-09T08:04:38.996Z,0.70
2022-08-09T08:07:15.432Z,0.75
2022-08-09T08:10:05.720Z,0.90
2022-08-09T08:12:43.131Z,0.70
2022-08-09T08:15:16.546Z,0.80
2022-08-09T08:17:53.884Z,0.77
2022-08-09T08:20:27.247Z,0.75
2022-08-09T08:23:01.664Z,0.73
2022-08-09T08:25:40.036Z,0.70
2022-08-09T08:28:31.991Z,0.77
2022-08-09T08:31:14.383Z,0.60
2022-08-09T08:33:52.849Z,0.57
2022-08-09T08:36:29.026Z,0.60
2022-08-09T08:39:00.202Z,0.65
2022-08-09T08:41:38.726Z,0.60
2022-08-09T08:44:27.204Z,0.45
2022-08-09T08:47:02.636Z,1.00
2022-08-09T08:49:46.665Z,0.65
2022-08-09T08:55:08.940Z,0.52
2022-08-09T08:57:38.133Z,0.80
2022-08-09T09:00:20.367Z,0.60
2022-08-09T09:03:08.175Z,0.52
2022-08-09T09:06:00.052Z,0.60
2022-08-09T09:08:41.041Z,0.80
2022-08-09T09:11:12.022Z,0.60
2022-08-09T09:13:55.064Z,0.90
2022-08-09T09:16:34.041Z,0.60
2022-08-09T09:19:37.534Z,0.70
2022-08-09T09:22:15.975Z,0.70
2022-08-09T09:26:01.652Z,0.70
2022-08-09T09:28:04.364Z,1.10
2022-08-09T09:30:41.098Z,0.77
2022-08-09T09:33:16.331Z,0.70
2022-08-09T09:36:02.625Z,0.73
2022-08-09T09:38:52.304Z,0.60
2022-08-09T09:41:24.179Z,0.70
2022-08-09T09:44:11.782Z,0.47
2022-08-09T09:46:50.879Z,0.88
2022-08-09T09:49:23.504Z,1.05
2022-08-09T09:52:35.664Z,0.60
2022-08-09T09:55:27.575Z,0.90
2022-08-09T09:58:17.046Z,0.80
2022-08-09T10:00:54.076Z,0.70
2022-08-09T10:03:56.977Z,0.90
2022-08-09T10:06:32.174Z,0.60
2022-08-09T10:09:11.721Z,0.63
2022-08-09T10:12:14.864Z,0.73
2022-08-09T10:14:51.761Z,0.85
2022-08-09T10:17:55.065Z,0.57
2022-08-09T10:20:27.512Z,0.70
2022-08-09T10:23:30.333Z,0.55
2022-08-09T10:26:10.661Z,0.57
2022-08-09T10:28:41.217Z,0.60
2022-08-09T10:34:08.941Z,0.60
2022-08-09T10:36:40.309Z,0.63
2022-08-09T10:39:15.510Z,0.60
2022-08-09T10:41:47.762Z,0.57
2022-08-09T10:44:22.919Z,0.60
2022-08-09T10:48:19.381Z,0.60
2022-08-09T10:51:00.170Z,0.40
2022-08-09T10:53:37.976Z,0.70
2022-08-09T10:56:22.657Z,0.50
2022-08-09T10:58:53.945Z,0.73
2022-08-09T11:03:13.437Z,0.60
2022-08-09T11:04:31.252Z,0.60
2022-08-09T11:07:01.619Z,0.50
2022-08-09T11:09:41.323Z,0.40
2022-08-09T11:12:18.390Z,0.60
2022-08-09T11:14:51.443Z,0.60
2022-08-09T11:17:22.815Z,0.50
2022-08-09T11:20:11.927Z,0.60
2022-08-09T11:22:55.650Z,0.65
2022-08-09T11:25:44.834Z,0.50
2022-08-09T11:31:34.221Z,0.57
2022-08-09T11:34:13.860Z,0.50
2022-08-09T11:36:47.226Z,0.77
2022-08-09T11:39:17.222Z,0.70
2022-08-09T11:41:45.935Z,0.45
2022-08-09T11:44:17.852Z,0.55
2022-08-09T11:46:59.627Z,0.40
2022-08-09T11:50:53.223Z,0.63
2022-08-09T11:53:28.041Z,0.65
2022-08-09T11:56:22.896Z,0.50
2022-08-09T11:59:12.204Z,0.40
2022-08-09T12:02:18.008Z,0.50
2022-08-09T12:04:37.492Z,0.60
2022-08-09T12:07:08.437Z,0.60
2022-08-09T12:09:37.447Z,0.52
2022-08-09T12:12:12.028Z,0.60
2022-08-09T12:15:03.858Z,0.50
2022-08-09T12:17:42.822Z,0.60
2022-08-09T12:20:21.483Z,0.57
2022-08-09T12:23:00.427Z,0.50
2022-08-09T12:25:37.511Z,0.50
2022-08-09T12:28:58.298Z,0.50
2022-08-09T12:31:31.266Z,0.70
2022-08-09T12:34:10.564Z,0.60
2022-08-09T12:36:58.648Z,0.57
2022-08-09T12:40:01.340Z,0.60
2022-08-09T12:42:34.019Z,0.45
2022-08-09T12:45:07.086Z,0.50
2022-08-09T12:47:55.044Z,0.47
2022-08-09T12:50:25.255Z,0.40
2022-08-09T12:53:08.089Z,0.90
2022-08-09T12:56:12.654Z,0.60
2022-08-09T12:58:27.875Z,0.50
2022-08-09T13:00:57.947Z,0.60
2022-08-09T13:03:52.626Z,1.00
2022-08-09T13:06:25.405Z,0.60
2022-08-09T13:09:23.200Z,0.65
2022-08-09T13:12:02.490Z,0.50
2022-08-09T13:14:41.698Z,0.60
2022-08-09T13:17:43.926Z,0.50
2022-08-09T13:20:17.464Z,0.50
2022-08-09T13:23:05.619Z,0.50
2022-08-09T13:25:54.781Z,0.47
2022-08-09T13:28:35.675Z,0.40
2022-08-09T13:32:17.472Z,0.40
2022-08-09T13:34:02.719Z,0.60
2022-08-09T13:36:42.107Z,0.50
2022-08-09T13:41:51.050Z,0.38
2022-08-09T13:42:02.809Z,0.40
2022-08-09T13:44:32.187Z,0.40
2022-08-09T13:47:27.405Z,0.50
2022-08-09T13:49:55.954Z,0.40
2022-08-09T13:52:26.497Z,0.30
2022-08-09T13:55:00.269Z,0.50
2022-08-09T13:57:39.295Z,0.50
2022-08-09T14:00:19.765Z,0.30
2022-08-09T14:03:04.498Z,0.50
2022-08-09T14:06:00.332Z,0.40
2022-08-09T14:08:31.618Z,0.40
2022-08-09T14:11:01.291Z,0.50
2022-08-09T14:14:22.876Z,0.38
2022-08-09T14:16:28.193Z,0.40
2022-08-09T14:18:58.353Z,0.47
2022-08-09T14:24:01.321Z,0.40
2022-08-09T14:26:38.498Z,0.50
2022-08-09T14:30:04.360Z,0.40
2022-08-09T14:32:06.092Z,0.40
2022-08-09T14:34:42.045Z,0.40
2022-08-09T14:37:11.909Z,0.60
2022-08-09T14:39:46.789Z,0.50
2022-08-09T14:42:32.095Z,0.30
2022-08-09T14:46:51.435Z,0.40
2022-08-09T14:50:30.869Z,0.60
2022-08-09T14:53:10.967Z,0.60
2022-08-09T14:55:50.082Z,0.50
2022-08-09T14:58:19.658Z,0.55
2022-08-09T15:00:51.300Z,0.40
2022-08-09T15:03:21.038Z,0.40
2022-08-09T15:05:53.803Z,0.52
2022-08-09T15:08:26.595Z,0.52
2022-08-09T15:11:00.873Z,0.38
2022-08-09T15:13:56.093Z,0.32
2022-08-09T15:16:19.797Z,0.40
2022-08-09T15:18:49.265Z,0.50
2022-08-09T15:21:56.134Z,0.40
2022-08-09T15:24:12.958Z,0.63
2022-08-09T15:26:45.909Z,0.50
2022-08-09T15:30:58.280Z,0.43
2022-08-09T15:32:04.852Z,0.40
2022-08-09T15:34:35.290Z,0.35
2022-08-09T15:37:36.905Z,0.50
2022-08-09T15:40:13.376Z,0.40
2022-08-09T15:42:44.310Z,0.50
2022-08-09T15:48:02.460Z,1.05
2022-08-09T15:50:32.845Z,0.30
2022-08-09T15:53:06.731Z,0.40
2022-08-09T15:56:18.051Z,0.60
2022-08-09T15:58:36.310Z,0.40
2022-08-09T16:01:04.799Z,0.50
2022-08-09T16:03:38.559Z,0.40
2022-08-09T16:06:16.166Z,1.23
2022-08-09T16:09:01.145Z,2.83
2022-08-09T16:11:32.920Z,0.90
2022-08-09T16:14:08.302Z,0.50
2022-08-09T16:16:39.065Z,0.40
2022-08-09T16:19:13.451Z,0.52
2022-08-09T16:21:51.738Z,0.45
2022-08-09T16:24:33.715Z,0.68
2022-08-09T16:29:37.844Z,0.52
2022-08-09T16:32:49.335Z,0.50
2022-08-09T16:35:07.412Z,0.90
2022-08-09T16:37:53.487Z,0.38
2022-08-09T16:40:29.948Z,0.40
2022-08-09T16:43:09.896Z,0.50
2022-08-09T16:45:43.616Z,0.70
2022-08-09T16:48:50.479Z,0.70
2022-08-09T16:51:07.454Z,0.50
2022-08-09T16:53:37.539Z,0.55
2022-08-09T16:56:13.428Z,0.68
2022-08-09T16:58:42.736Z,0.50
2022-08-09T17:01:24.783Z,0.80
2022-08-09T17:04:06.661Z,0.40
2022-08-09T17:07:03.886Z,0.60
2022-08-09T17:09:46.255Z,1.00
2022-08-09T17:12:14.768Z,1.10
2022-08-09T17:14:47.757Z,1.00
2022-08-09T17:17:26.868Z,0.95
2022-08-09T17:20:32.695Z,0.70
2022-08-09T17:22:49.915Z,0.60
2022-08-09T17:25:22.316Z,0.70
2022-08-09T17:27:53.667Z,0.60
2022-08-09T17:30:26.482Z,0.93
2022-08-09T17:33:04.798Z,0.70
2022-08-09T17:35:41.237Z,0.70
2022-08-09T17:38:30.640Z,0.60
2022-08-09T17:41:02.857Z,0.40
2022-08-09T17:43:37.050Z,0.80
2022-08-09T17:46:09.603Z,0.75
2022-08-09T17:48:51.754Z,0.70
2022-08-09T17:51:22.250Z,0.85
2022-08-09T17:53:55.268Z,0.73
2022-08-09T17:56:28.943Z,0.93
2022-08-09T17:59:11.465Z,0.70
2022-08-09T18:02:07.721Z,0.88
2022-08-09T18:04:31.035Z,0.80
2022-08-09T18:06:59.873Z,0.80
2022-08-09T18:09:40.737Z,0.70
2022-08-09T18:12:19.550Z,0.70
2022-08-09T18:14:54.889Z,0.63
2022-08-09T18:18:01.576Z,0.68
2022-08-09T18:20:53.814Z,0.52
2022-08-09T18:23:07.598Z,0.75
2022-08-09T18:25:50.852Z,0.75
2022-08-09T18:30:40.620Z,0.80
2022-08-09T18:31:24.738Z,0.73
2022-08-09T18:34:03.815Z,0.80
2022-08-09T18:36:36.372Z,0.80
2022-08-09T18:39:11.153Z,0.90
2022-08-09T18:41:53.012Z,0.90
2022-08-09T18:44:25.684Z,0.80
2022-08-09T18:47:07.878Z,0.80
2022-08-09T18:49:46.678Z,0.68
2022-08-09T18:52:18.725Z,0.90
2022-08-09T18:54:53.743Z,1.38
2022-08-09T18:57:38.487Z,0.80
2022-08-09T19:00:19.093Z,0.73
2022-08-09T19:02:51.060Z,0.95
2022-08-09T19:06:01.886Z,0.80
2022-08-09T19:08:18.241Z,1.15
2022-08-09T19:10:48.492Z,0.80
2022-08-09T19:13:20.461Z,0.88
2022-08-09T19:15:53.009Z,0.90
2022-08-09T19:18:34.143Z,0.88
2022-08-09T19:21:09.661Z,0.90
2022-08-09T19:24:32.337Z,0.93
2022-08-09T19:26:32.441Z,0.70
2022-08-09T19:29:09.424Z,0.70
2022-08-09T19:31:46.103Z,0.80
2022-08-09T19:34:22.258Z,0.80
2022-08-09T19:36:54.538Z,0.70
2022-08-09T19:39:29.293Z,0.68
2022-08-09T19:42:15.075Z,1.00
2022-08-09T19:44:50.928Z,0.90
2022-08-09T19:47:23.442Z,0.70
2022-08-09T19:50:08.755Z,0.82
2022-08-09T19:52:49.460Z,0.98
2022-08-09T19:55:25.626Z,0.88
2022-08-09T19:57:59.753Z,0.90
2022-08-09T20:00:28.406Z,0.90
2022-08-09T20:04:17.216Z,0.93
2022-08-09T20:05:50.677Z,1.00
2022-08-09T20:08:33.248Z,1.23
2022-08-09T20:11:06.699Z,1.13
2022-08-09T20:13:37.312Z,1.13
2022-08-09T20:16:35.698Z,0.90
2022-08-09T20:19:42.500Z,1.00
2022-08-09T20:21:56.853Z,1.00
2022-08-09T20:24:33.530Z,1.17
2022-08-09T20:27:05.614Z,0.90
2022-08-09T20:29:39.080Z,1.17
2022-08-09T20:32:30.351Z,1.23
2022-08-09T20:34:59.567Z,0.90
2022-08-09T20:37:37.698Z,1.00
2022-08-09T20:40:27.238Z,1.20
2022-08-09T20:43:18.666Z,1.00
2022-08-09T20:46:00.802Z,1.13
2022-08-09T20:48:39.930Z,1.00
2022-08-09T20:51:19.195Z,1.15
2022-08-09T20:53:48.933Z,1.13
2022-08-09T20:56:21.513Z,1.08
2022-08-09T20:58:54.718Z,1.30
2022-08-09T21:01:35.121Z,1.08
2022-08-09T21:05:52.347Z,1.20
2022-08-09T21:09:46.029Z,1.30
2022-08-09T21:12:56.359Z,1.05
2022-08-09T21:15:17.772Z,1.30
2022-08-09T21:18:21.069Z,1.25
2022-08-09T21:20:54.387Z,1.00
2022-08-09T21:23:47.591Z,1.40
2022-08-09T21:26:15.842Z,1.27
2022-08-09T21:28:51.803Z,1.40
2022-08-09T21:31:49.346Z,1.30
2022-08-09T21:34:28.547Z,1.13
2022-08-09T21:36:58.696Z,1.40
2022-08-09T21:39:28.121Z,1.42
2022-08-09T21:42:11.229Z,1.60
2022-08-09T21:44:43.674Z,1.87
2022-08-09T21:47:18.222Z,1.90
2022-08-09T21:49:48.288Z,1.60
2022-08-09T21:52:20.542Z,1.85
2022-08-09T21:55:03.476Z,2.15
2022-08-09T21:57:37.501Z,2.00
2022-08-09T22:00:25.288Z,1.73
2022-08-09T22:02:59.206Z,1.77
2022-08-09T22:05:37.106Z,2.58
2022-08-09T22:08:13.015Z,1.92
2022-08-09T22:11:49.319Z,2.08
2022-08-09T22:13:35.450Z,1.90
2022-08-09T22:16:09.233Z,2.20
2022-08-09T22:18:53.330Z,2.10
2022-08-09T22:21:27.539Z,2.13
2022-08-09T22:24:17.096Z,2.33
2022-08-09T22:26:51.123Z,2.55
2022-08-09T22:29:27.051Z,2.35
2022-08-09T22:32:00.958Z,2.38
2022-08-09T22:34:29.290Z,2.95
2022-08-09T22:37:00.613Z,4.10
2022-08-09T22:39:55.481Z,3.17
2022-08-09T22:42:21.992Z,3.17
2022-08-09T22:45:00.076Z,2.80
2022-08-09T22:48:14.692Z,3.55
2022-08-09T22:50:32.687Z,3.47
2022-08-09T22:53:03.951Z,3.20
2022-08-09T22:56:06.554Z,3.10
2022-08-09T22:58:32.887Z,2.83
2022-08-09T23:01:03.752Z,2.55
2022-08-09T23:04:03.974Z,2.60
2022-08-09T23:06:35.005Z,2.95
2022-08-09T23:09:06.243Z,4.05
2022-08-09T23:11:35.091Z,3.42
2022-08-09T23:14:04.135Z,3.65
2022-08-09T23:16:38.820Z,4.50
2022-08-09T23:19:07.174Z,4.57
2022-08-09T23:21:38.540Z,3.55
2022-08-09T23:24:08.822Z,3.50
2022-08-09T23:26:39.118Z,3.17
2022-08-09T23:29:11.389Z,3.15
2022-08-09T23:31:41.239Z,2.83
2022-08-09T23:34:09.685Z,3.10
2022-08-09T23:36:38.987Z,2.55
2022-08-09T23:39:08.085Z,2.55
2022-08-09T23:41:36.597Z,2.40
2022-08-09T23:44:05.268Z,2.50
2022-08-09T23:46:34.377Z,2.42
2022-08-09T23:49:03.307Z,3.08
2022-08-09T23:51:31.655Z,2.60
2022-08-09T23:54:03.572Z,2.40
2022-08-09T23:56:52.393Z,2.70
2022-08-09T23:59:22.948Z,2.58
